AAL1735 KDFW-KSHV
Flight info
| Callsign | AAL1735 |
|---|---|
| Flight time | 0h 30m |
| Altitude | 21000 |
| Route | MRSSH3 MRSSH |
| Aircraft | A20N/M-SDE2E3FGHIRWXY/LB1 |
Departure
| Time | 2026-04-26 17:43 |
|---|---|
| Airport | Dallas Fort Worth International Airport (KDFW) |
Arrival
| Time | 2026-04-26 18:13 |
|---|---|
| Airport | Shreveport Regional Airport (KSHV) |
| Time | Latitude | Longitude | Altitude | Speed | Heading |
|---|---|---|---|---|---|
| 2026-04-26 17:25 | 32.90501 | -97.03495 | 601 ft | 0 kts | 268° |
| 2026-04-26 17:26 | 32.90497 | -97.03495 | 601 ft | 0 kts | 273° |
| 2026-04-26 17:26 | 32.90497 | -97.03503 | 601 ft | 0 kts | 272° |
| 2026-04-26 17:34 | 32.90496 | -97.03470 | 601 ft | 3 kts | 273° |
| 2026-04-26 17:34 | 32.90495 | -97.03447 | 601 ft | 3 kts | 273° |
| 2026-04-26 17:34 | 32.90494 | -97.03425 | 601 ft | 3 kts | 273° |
| 2026-04-26 17:34 | 32.90489 | -97.03406 | 601 ft | 0 kts | 331° |
| 2026-04-26 17:36 | 32.90494 | -97.03402 | 601 ft | 2 kts | 34° |
| 2026-04-26 17:37 | 32.90472 | -97.03364 | 601 ft | 11 kts | 115° |
| 2026-04-26 17:37 | 32.90469 | -97.03313 | 601 ft | 0 kts | 78° |
| 2026-04-26 17:37 | 32.90510 | -97.03307 | 601 ft | 11 kts | 349° |
| 2026-04-26 17:38 | 32.90667 | -97.03312 | 601 ft | 15 kts | 0° |
| 2026-04-26 17:38 | 32.90785 | -97.03312 | 601 ft | 17 kts | 0° |
| 2026-04-26 17:38 | 32.90901 | -97.03312 | 601 ft | 16 kts | 359° |
| 2026-04-26 17:38 | 32.91003 | -97.03291 | 601 ft | 12 kts | 39° |
| 2026-04-26 17:39 | 32.91064 | -97.03275 | 601 ft | 7 kts | 1° |
| 2026-04-26 17:39 | 32.91129 | -97.03273 | 601 ft | 12 kts | 1° |
| 2026-04-26 17:39 | 32.91224 | -97.03275 | 601 ft | 16 kts | 1° |
| 2026-04-26 17:39 | 32.91347 | -97.03273 | 601 ft | 20 kts | 0° |
| 2026-04-26 17:40 | 32.91446 | -97.03272 | 601 ft | 7 kts | 4° |
| 2026-04-26 17:40 | 32.91476 | -97.03257 | 601 ft | 8 kts | 40° |
| 2026-04-26 17:40 | 32.91486 | -97.03150 | 601 ft | 9 kts | 90° |
| 2026-04-26 17:40 | 32.91486 | -97.03111 | 601 ft | 0 kts | 90° |
| 2026-04-26 17:41 | 32.91486 | -97.03107 | 601 ft | 2 kts | 90° |
| 2026-04-26 17:41 | 32.91486 | -97.03067 | 601 ft | 8 kts | 90° |
| 2026-04-26 17:42 | 32.91477 | -97.03002 | 601 ft | 7 kts | 126° |
| 2026-04-26 17:42 | 32.91431 | -97.02991 | 601 ft | 12 kts | 179° |
| 2026-04-26 17:42 | 32.91109 | -97.02993 | 601 ft | 87 kts | 180° |
| 2026-04-26 17:42 | 32.90211 | -97.03003 | 628 ft | 162 kts | 180° |
| 2026-04-26 17:43 | 32.89028 | -97.03023 | 1276 ft | 177 kts | 178° |
| 2026-04-26 17:43 | 32.87781 | -97.03012 | 2140 ft | 179 kts | 179° |
| 2026-04-26 17:43 | 32.86503 | -97.02988 | 2543 ft | 200 kts | 181° |
| 2026-04-26 17:43 | 32.84992 | -97.02977 | 2750 ft | 232 kts | 180° |
| 2026-04-26 17:44 | 32.83314 | -97.02973 | 3235 ft | 247 kts | 180° |
| 2026-04-26 17:44 | 32.81589 | -97.02974 | 4038 ft | 248 kts | 182° |
| 2026-04-26 17:44 | 32.79843 | -97.02978 | 4794 ft | 254 kts | 181° |
| 2026-04-26 17:44 | 32.78060 | -97.02983 | 5564 ft | 258 kts | 183° |
| 2026-04-26 17:45 | 32.76238 | -97.03003 | 6225 ft | 266 kts | 184° |
| 2026-04-26 17:45 | 32.74362 | -97.02945 | 6890 ft | 273 kts | 178° |
| 2026-04-26 17:45 | 32.72513 | -97.02320 | 7599 ft | 283 kts | 157° |
| 2026-04-26 17:45 | 32.70928 | -97.00902 | 8407 ft | 291 kts | 135° |
| 2026-04-26 17:46 | 32.69867 | -96.98815 | 9128 ft | 303 kts | 114° |
| 2026-04-26 17:46 | 32.69259 | -96.96388 | 9838 ft | 309 kts | 107° |
| 2026-04-26 17:46 | 32.68847 | -96.93857 | 10389 ft | 321 kts | 97° |
| 2026-04-26 17:46 | 32.68781 | -96.91114 | 10667 ft | 342 kts | 90° |
| 2026-04-26 17:47 | 32.68841 | -96.88245 | 10954 ft | 359 kts | 89° |
| 2026-04-26 17:47 | 32.68893 | -96.86227 | 11277 ft | 365 kts | 89° |
| 2026-04-26 17:47 | 32.68986 | -96.82148 | 12052 ft | 374 kts | 89° |
| 2026-04-26 17:47 | 32.69045 | -96.79084 | 12696 ft | 378 kts | 89° |
| 2026-04-26 17:48 | 32.69099 | -96.75934 | 13411 ft | 383 kts | 89° |
| 2026-04-26 17:48 | 32.69151 | -96.72745 | 14056 ft | 389 kts | 89° |
| 2026-04-26 17:48 | 32.69201 | -96.69507 | 14680 ft | 394 kts | 89° |
| 2026-04-26 17:48 | 32.69249 | -96.66233 | 15306 ft | 399 kts | 89° |
| 2026-04-26 17:49 | 32.69297 | -96.62922 | 15919 ft | 404 kts | 89° |
| 2026-04-26 17:49 | 32.69344 | -96.59569 | 16553 ft | 409 kts | 89° |
| 2026-04-26 17:49 | 32.69391 | -96.56176 | 17212 ft | 414 kts | 89° |
| 2026-04-26 17:49 | 32.69437 | -96.52741 | 17819 ft | 418 kts | 89° |
| 2026-04-26 17:50 | 32.69482 | -96.49269 | 18402 ft | 423 kts | 89° |
| 2026-04-26 17:50 | 32.69528 | -96.45758 | 18947 ft | 427 kts | 89° |
| 2026-04-26 17:50 | 32.69572 | -96.42228 | 19606 ft | 428 kts | 88° |
| 2026-04-26 17:50 | 32.69615 | -96.38681 | 20164 ft | 432 kts | 88° |
| 2026-04-26 17:51 | 32.69657 | -96.35093 | 20686 ft | 437 kts | 89° |
| 2026-04-26 17:51 | 32.69563 | -96.31515 | 20964 ft | 439 kts | 93° |
| 2026-04-26 17:51 | 32.69342 | -96.27860 | 21015 ft | 440 kts | 94° |
| 2026-04-26 17:51 | 32.69098 | -96.24234 | 21019 ft | 441 kts | 94° |
| 2026-04-26 17:52 | 32.68851 | -96.20602 | 21017 ft | 442 kts | 94° |
| 2026-04-26 17:52 | 32.68602 | -96.16923 | 21014 ft | 455 kts | 94° |
| 2026-04-26 17:52 | 32.68345 | -96.13105 | 21010 ft | 473 kts | 94° |
| 2026-04-26 17:52 | 32.68078 | -96.09152 | 21004 ft | 488 kts | 94° |
| 2026-04-26 17:53 | 32.67803 | -96.05079 | 21003 ft | 501 kts | 94° |
| 2026-04-26 17:53 | 32.67522 | -96.00922 | 21001 ft | 512 kts | 94° |
| 2026-04-26 17:53 | 32.67234 | -95.96688 | 20999 ft | 515 kts | 94° |
| 2026-04-26 17:54 | 32.66657 | -95.88273 | 21000 ft | 502 kts | 94° |
| 2026-04-26 17:54 | 32.66369 | -95.84110 | 20996 ft | 510 kts | 94° |
| 2026-04-26 17:54 | 32.66077 | -95.79894 | 20994 ft | 514 kts | 94° |
| 2026-04-26 17:54 | 32.65782 | -95.75656 | 20998 ft | 515 kts | 94° |
| 2026-04-26 17:55 | 32.65489 | -95.71476 | 20998 ft | 515 kts | 94° |
| 2026-04-26 17:55 | 32.65190 | -95.67234 | 20998 ft | 515 kts | 95° |
| 2026-04-26 17:55 | 32.64891 | -95.63000 | 20999 ft | 515 kts | 95° |
| 2026-04-26 17:55 | 32.64590 | -95.58767 | 21004 ft | 515 kts | 95° |
| 2026-04-26 17:56 | 32.64288 | -95.54538 | 21006 ft | 515 kts | 95° |
| 2026-04-26 17:56 | 32.63678 | -95.46050 | 21006 ft | 515 kts | 95° |
| 2026-04-26 17:57 | 32.63066 | -95.37630 | 21012 ft | 515 kts | 95° |
| 2026-04-26 17:57 | 32.62757 | -95.33398 | 21003 ft | 515 kts | 95° |
| 2026-04-26 17:57 | 32.62446 | -95.29162 | 21001 ft | 515 kts | 95° |
| 2026-04-26 17:57 | 32.62134 | -95.24936 | 20883 ft | 514 kts | 95° |
| 2026-04-26 17:58 | 32.61190 | -95.12257 | 20875 ft | 514 kts | 95° |
| 2026-04-26 17:59 | 32.60558 | -95.03867 | 20876 ft | 513 kts | 95° |
| 2026-04-26 17:59 | 32.60242 | -94.99695 | 20880 ft | 497 kts | 95° |
| 2026-04-26 17:59 | 32.59937 | -94.95697 | 20689 ft | 477 kts | 95° |
| 2026-04-26 17:59 | 32.59644 | -94.91871 | 20381 ft | 456 kts | 95° |
| 2026-04-26 18:00 | 32.59362 | -94.88191 | 20079 ft | 437 kts | 95° |
| 2026-04-26 18:00 | 32.59091 | -94.84674 | 19788 ft | 419 kts | 95° |
| 2026-04-26 18:00 | 32.58828 | -94.81275 | 19367 ft | 410 kts | 95° |
| 2026-04-26 18:00 | 32.58622 | -94.77927 | 18951 ft | 404 kts | 90° |
| 2026-04-26 18:01 | 32.58711 | -94.74606 | 18479 ft | 400 kts | 85° |
| 2026-04-26 18:01 | 32.58914 | -94.71305 | 17614 ft | 407 kts | 84° |
| 2026-04-26 18:01 | 32.59146 | -94.67910 | 16664 ft | 416 kts | 84° |
| 2026-04-26 18:01 | 32.59380 | -94.64456 | 15701 ft | 424 kts | 84° |
| 2026-04-26 18:02 | 32.59615 | -94.60947 | 14782 ft | 429 kts | 84° |
| 2026-04-26 18:02 | 32.59770 | -94.58596 | 14125 ft | 433 kts | 84° |
| 2026-04-26 18:02 | 32.60082 | -94.53850 | 12937 ft | 435 kts | 85° |
| 2026-04-26 18:02 | 32.60313 | -94.50280 | 12177 ft | 431 kts | 85° |
| 2026-04-26 18:03 | 32.60539 | -94.46760 | 11467 ft | 426 kts | 85° |
| 2026-04-26 18:03 | 32.60762 | -94.43280 | 10795 ft | 420 kts | 86° |
| 2026-04-26 18:03 | 32.60981 | -94.39837 | 10111 ft | 415 kts | 86° |
| 2026-04-26 18:03 | 32.61191 | -94.36488 | 9693 ft | 396 kts | 86° |
| 2026-04-26 18:04 | 32.61394 | -94.33328 | 9344 ft | 373 kts | 86° |
| 2026-04-26 18:04 | 32.61588 | -94.30302 | 8716 ft | 368 kts | 86° |
| 2026-04-26 18:04 | 32.61780 | -94.27249 | 7700 ft | 375 kts | 87° |
| 2026-04-26 18:05 | 32.62167 | -94.20960 | 5777 ft | 384 kts | 88° |
| 2026-04-26 18:05 | 32.62364 | -94.17813 | 5105 ft | 379 kts | 87° |
| 2026-04-26 18:05 | 32.62554 | -94.14713 | 4435 ft | 374 kts | 88° |
| 2026-04-26 18:05 | 32.62739 | -94.11692 | 3991 ft | 361 kts | 88° |
| 2026-04-26 18:06 | 32.62919 | -94.08777 | 3640 ft | 347 kts | 88° |
| 2026-04-26 18:06 | 32.63080 | -94.05998 | 3420 ft | 330 kts | 89° |
| 2026-04-26 18:06 | 32.63231 | -94.03395 | 3193 ft | 310 kts | 89° |
| 2026-04-26 18:06 | 32.63376 | -94.00928 | 3021 ft | 288 kts | 89° |
| 2026-04-26 18:07 | 32.63524 | -93.98662 | 2980 ft | 263 kts | 89° |
| 2026-04-26 18:07 | 32.63662 | -93.96596 | 2987 ft | 240 kts | 89° |
| 2026-04-26 18:07 | 32.63684 | -93.94697 | 3005 ft | 219 kts | 107° |
| 2026-04-26 18:07 | 32.63319 | -93.93658 | 3016 ft | 196 kts | 130° |
| 2026-04-26 18:08 | 32.61861 | -93.92564 | 2982 ft | 192 kts | 167° |
| 2026-04-26 18:08 | 32.60619 | -93.92187 | 2931 ft | 177 kts | 170° |
| 2026-04-26 18:08 | 32.59461 | -93.91889 | 2762 ft | 163 kts | 171° |
| 2026-04-26 18:08 | 32.58399 | -93.91621 | 2564 ft | 154 kts | 170° |
| 2026-04-26 18:09 | 32.57378 | -93.91377 | 2303 ft | 144 kts | 170° |
| 2026-04-26 18:09 | 32.56423 | -93.91174 | 2054 ft | 138 kts | 172° |
| 2026-04-26 18:09 | 32.55499 | -93.90972 | 1981 ft | 134 kts | 172° |
| 2026-04-26 18:09 | 32.54599 | -93.90700 | 1986 ft | 133 kts | 161° |
| 2026-04-26 18:10 | 32.53773 | -93.90224 | 1985 ft | 131 kts | 154° |
| 2026-04-26 18:10 | 32.52974 | -93.89704 | 1990 ft | 131 kts | 153° |
| 2026-04-26 18:10 | 32.52181 | -93.89157 | 1982 ft | 133 kts | 153° |
| 2026-04-26 18:10 | 32.51388 | -93.88584 | 1991 ft | 133 kts | 150° |
| 2026-04-26 18:11 | 32.50544 | -93.88145 | 1873 ft | 134 kts | 162° |
| 2026-04-26 18:11 | 32.49748 | -93.87585 | 1681 ft | 136 kts | 141° |
| 2026-04-26 18:11 | 32.49082 | -93.86793 | 1429 ft | 134 kts | 139° |
| 2026-04-26 18:11 | 32.48386 | -93.86110 | 1149 ft | 127 kts | 148° |
| 2026-04-26 18:12 | 32.47660 | -93.85513 | 911 ft | 127 kts | 149° |
| 2026-04-26 18:12 | 32.46962 | -93.84878 | 740 ft | 126 kts | 147° |
| 2026-04-26 18:12 | 32.46257 | -93.84260 | 545 ft | 126 kts | 147° |
| 2026-04-26 18:12 | 32.45565 | -93.83645 | 344 ft | 123 kts | 148° |
| 2026-04-26 18:13 | 32.44887 | -93.83043 | 240 ft | 118 kts | 148° |
| 2026-04-26 18:13 | 32.44419 | -93.82621 | 238 ft | 41 kts | 143° |
| 2026-04-26 18:13 | 32.44202 | -93.82430 | 232 ft | 30 kts | 140° |
| 2026-04-26 18:13 | 32.44170 | -93.82393 | 232 ft | 17 kts | 129° |
| 2026-04-26 18:14 | 32.44235 | -93.82258 | 231 ft | 8 kts | 346° |
| 2026-04-26 18:14 | 32.44298 | -93.82310 | 232 ft | 14 kts | 323° |
| 2026-04-26 18:14 | 32.44388 | -93.82392 | 236 ft | 19 kts | 322° |
| 2026-04-26 18:14 | 32.44509 | -93.82466 | 239 ft | 19 kts | 340° |
| 2026-04-26 18:15 | 32.44632 | -93.82502 | 242 ft | 17 kts | 349° |
| 2026-04-26 18:15 | 32.44738 | -93.82526 | 244 ft | 14 kts | 349° |
| 2026-04-26 18:15 | 32.44842 | -93.82551 | 243 ft | 19 kts | 349° |
| 2026-04-26 18:15 | 32.44997 | -93.82589 | 243 ft | 19 kts | 333° |
| 2026-04-26 18:16 | 32.45093 | -93.82709 | 249 ft | 24 kts | 313° |
| 2026-04-26 18:16 | 32.45270 | -93.82892 | 256 ft | 7 kts | 336° |
| 2026-04-26 18:16 | 32.45287 | -93.82901 | 257 ft | 0 kts | 335° |
| 2026-04-26 18:17 | 32.45296 | -93.82907 | 258 ft | 0 kts | 335° |